createdAt,value
2022-11-16T00:01:43.258Z,3.33
2022-11-16T00:04:12.762Z,3.05
2022-11-16T00:06:41.023Z,2.65
2022-11-16T00:09:25.529Z,3.20
2022-11-16T00:11:58.115Z,3.40
2022-11-16T00:14:29.347Z,2.33
2022-11-16T00:16:58.503Z,3.10
2022-11-16T00:19:28.063Z,2.88
2022-11-16T00:21:57.150Z,2.95
2022-11-16T00:24:25.270Z,3.22
2022-11-16T00:26:56.705Z,2.78
2022-11-16T00:29:26.912Z,2.67
2022-11-16T00:31:55.849Z,2.75
2022-11-16T00:34:24.475Z,2.83
2022-11-16T00:36:53.271Z,3.00
2022-11-16T00:39:21.047Z,2.65
2022-11-16T00:41:50.476Z,2.42
2022-11-16T00:44:19.844Z,2.78
2022-11-16T00:46:47.675Z,2.72
2022-11-16T00:49:16.074Z,2.50
2022-11-16T00:51:43.904Z,2.42
2022-11-16T00:54:11.618Z,2.78
2022-11-16T00:56:40.189Z,2.58
2022-11-16T00:59:08.200Z,2.70
2022-11-16T01:01:37.350Z,3.55
2022-11-16T01:04:05.653Z,3.30
2022-11-16T01:06:33.436Z,2.70
2022-11-16T01:09:01.738Z,3.17
2022-11-16T01:11:46.745Z,2.65
2022-11-16T01:16:43.404Z,2.75
2022-11-16T01:19:11.528Z,3.08
2022-11-16T01:21:39.962Z,2.72
2022-11-16T01:24:07.946Z,2.20
2022-11-16T01:26:36.932Z,2.58
2022-11-16T01:29:05.133Z,2.78
2022-11-16T01:31:32.869Z,3.10
2022-11-16T01:34:02.060Z,2.88
2022-11-16T01:36:29.939Z,3.17
2022-11-16T01:38:58.074Z,3.10
2022-11-16T01:41:27.870Z,2.65
2022-11-16T01:43:59.306Z,2.67
2022-11-16T01:46:28.944Z,3.00
2022-11-16T01:49:06.395Z,2.78
2022-11-16T01:51:35.586Z,2.85
2022-11-16T01:54:10.788Z,2.75
2022-11-16T01:56:40.871Z,2.90
2022-11-16T01:59:09.196Z,3.22
2022-11-16T02:01:36.953Z,3.40
2022-11-16T02:04:06.551Z,2.70
2022-11-16T02:06:52.211Z,3.08
2022-11-16T02:09:54.617Z,2.70
2022-11-16T02:12:45.891Z,2.55
2022-11-16T02:15:25.415Z,2.20
2022-11-16T02:18:11.755Z,2.53
2022-11-16T02:21:11.666Z,2.90
2022-11-16T02:24:17.453Z,2.17
2022-11-16T02:27:16.510Z,2.33
2022-11-16T02:29:51.046Z,2.47
2022-11-16T02:32:28.921Z,3.08
2022-11-16T02:35:05.739Z,3.50
2022-11-16T02:37:40.657Z,2.50
2022-11-16T02:40:13.894Z,2.85
2022-11-16T02:42:48.557Z,2.92
2022-11-16T02:47:54.510Z,2.70
2022-11-16T02:50:24.783Z,3.17
2022-11-16T02:52:52.544Z,2.90
2022-11-16T02:55:20.345Z,2.13
2022-11-16T02:57:55.365Z,3.00
2022-11-16T03:00:30.389Z,2.33
2022-11-16T03:03:16.391Z,3.08
2022-11-16T03:05:52.031Z,2.97
2022-11-16T03:08:26.847Z,2.45
2022-11-16T03:11:18.229Z,2.70
2022-11-16T03:13:48.560Z,2.65
2022-11-16T03:16:22.882Z,2.42
2022-11-16T03:18:53.088Z,2.28
2022-11-16T03:21:32.121Z,2.75
2022-11-16T03:24:00.294Z,3.38
2022-11-16T03:26:39.463Z,3.10
2022-11-16T03:29:15.275Z,2.85
2022-11-16T03:31:52.641Z,2.95
2022-11-16T03:34:26.892Z,2.63
2022-11-16T03:36:56.728Z,2.45
2022-11-16T03:39:32.080Z,3.35
2022-11-16T03:42:03.573Z,2.70
2022-11-16T03:44:31.740Z,2.08
2022-11-16T03:47:02.025Z,2.63
2022-11-16T03:49:32.350Z,2.75
2022-11-16T03:52:00.342Z,2.58
2022-11-16T03:54:28.241Z,2.42
2022-11-16T03:56:55.965Z,2.30
2022-11-16T03:59:23.792Z,2.38
2022-11-16T04:01:52.489Z,2.13
2022-11-16T04:04:39.600Z,2.13
2022-11-16T04:07:25.027Z,1.73
2022-11-16T04:10:10.111Z,2.47
2022-11-16T04:15:48.296Z,1.67
2022-11-16T04:18:33.825Z,2.33
2022-11-16T04:21:21.329Z,2.65
2022-11-16T04:24:07.586Z,2.80
2022-11-16T04:26:54.044Z,2.63
2022-11-16T04:29:21.916Z,2.38
2022-11-16T04:32:07.332Z,2.42
2022-11-16T04:34:52.767Z,2.53
2022-11-16T04:37:44.878Z,2.08
2022-11-16T04:40:13.454Z,2.60
2022-11-16T04:42:40.219Z,1.92
2022-11-16T04:45:26.859Z,2.17
2022-11-16T04:47:55.112Z,2.15
2022-11-16T04:50:23.058Z,2.70
2022-11-16T04:52:52.376Z,2.70
2022-11-16T04:55:20.105Z,2.78
2022-11-16T04:57:47.867Z,2.80
2022-11-16T05:00:16.969Z,2.80
2022-11-16T05:02:44.786Z,1.83
2022-11-16T05:05:13.901Z,2.50
2022-11-16T05:07:41.750Z,2.47
2022-11-16T05:10:12.344Z,2.28
2022-11-16T05:12:40.618Z,2.30
2022-11-16T05:15:10.334Z,2.35
2022-11-16T05:17:38.137Z,1.92
2022-11-16T05:20:25.016Z,2.63
2022-11-16T05:22:56.047Z,2.28
2022-11-16T05:25:26.418Z,2.45
2022-11-16T05:27:54.335Z,2.08
2022-11-16T05:30:22.116Z,1.98
2022-11-16T05:32:49.885Z,2.65
2022-11-16T05:35:17.666Z,2.50
2022-11-16T05:37:45.415Z,2.35
2022-11-16T05:40:14.027Z,1.63
2022-11-16T05:42:43.108Z,2.13
2022-11-16T05:45:11.576Z,2.92
2022-11-16T05:47:39.283Z,1.90
2022-11-16T05:50:08.879Z,2.40
2022-11-16T05:52:36.620Z,1.92
2022-11-16T05:55:05.216Z,2.10
2022-11-16T05:57:32.923Z,2.33
2022-11-16T06:00:01.955Z,2.10
2022-11-16T06:02:29.718Z,2.38
2022-11-16T06:04:57.425Z,2.03
2022-11-16T06:07:25.232Z,1.98
2022-11-16T06:09:53.044Z,1.75
2022-11-16T06:12:20.867Z,2.75
2022-11-16T06:14:48.556Z,1.67
2022-11-16T06:17:18.048Z,2.28
2022-11-16T06:19:45.813Z,2.15
2022-11-16T06:22:13.558Z,2.53
2022-11-16T06:24:41.346Z,1.67
2022-11-16T06:27:09.124Z,1.75
2022-11-16T06:29:37.743Z,2.45
2022-11-16T06:32:06.448Z,1.40
2022-11-16T06:34:35.519Z,1.83
2022-11-16T06:37:03.248Z,1.98
2022-11-16T06:39:30.947Z,1.45
2022-11-16T06:41:58.821Z,2.15
2022-11-16T06:44:26.525Z,0.98
2022-11-16T06:46:54.285Z,1.48
2022-11-16T06:49:22.010Z,2.08
2022-11-16T06:51:51.048Z,1.98
2022-11-16T06:54:18.796Z,1.90
2022-11-16T06:56:46.593Z,2.30
2022-11-16T06:59:14.471Z,2.13
2022-11-16T07:01:43.499Z,1.88
2022-11-16T07:04:11.932Z,2.00
2022-11-16T07:06:40.482Z,2.13
2022-11-16T07:09:10.637Z,2.22
2022-11-16T07:11:38.378Z,2.05
2022-11-16T07:14:06.121Z,1.85
2022-11-16T07:16:36.472Z,1.48
2022-11-16T07:19:04.281Z,1.83
2022-11-16T07:21:32.633Z,1.70
2022-11-16T07:24:00.377Z,1.67
2022-11-16T07:26:31.024Z,1.85
2022-11-16T07:28:59.276Z,1.23
2022-11-16T07:31:27.348Z,1.83
2022-11-16T07:33:55.610Z,1.73
2022-11-16T07:36:24.495Z,2.17
2022-11-16T07:38:52.259Z,2.22
2022-11-16T07:41:21.382Z,2.22
2022-11-16T07:43:53.166Z,2.20
2022-11-16T07:49:15.776Z,2.15
2022-11-16T07:51:44.337Z,2.40
2022-11-16T07:54:13.398Z,2.50
2022-11-16T07:56:41.934Z,2.55
2022-11-16T07:59:11.153Z,1.85
2022-11-16T08:01:39.052Z,2.38
2022-11-16T08:04:06.770Z,2.75
2022-11-16T08:06:35.022Z,2.20
2022-11-16T08:09:02.738Z,2.20
2022-11-16T08:11:30.586Z,2.80
2022-11-16T08:13:59.153Z,2.28
2022-11-16T08:16:28.387Z,2.15
2022-11-16T08:18:56.173Z,2.00
2022-11-16T08:21:23.980Z,1.95
2022-11-16T08:23:57.886Z,1.45
2022-11-16T08:28:56.329Z,1.38
2022-11-16T08:31:28.864Z,1.20
2022-11-16T08:33:57.553Z,1.13
2022-11-16T08:36:25.337Z,1.70
2022-11-16T08:38:53.659Z,1.45
2022-11-16T08:41:22.699Z,1.15
2022-11-16T08:43:53.067Z,1.17
2022-11-16T08:46:21.537Z,0.93
2022-11-16T08:48:50.638Z,0.95
2022-11-16T08:51:20.641Z,1.83
2022-11-16T08:53:49.769Z,1.58
2022-11-16T08:56:19.599Z,2.08
2022-11-16T08:58:50.256Z,1.95
2022-11-16T09:01:23.648Z,2.38
2022-11-16T09:03:53.785Z,1.95
2022-11-16T09:06:22.611Z,2.67
2022-11-16T09:08:50.615Z,2.22
2022-11-16T09:11:22.382Z,1.90
2022-11-16T09:13:52.687Z,1.73
2022-11-16T09:16:22.253Z,1.92
2022-11-16T09:18:52.962Z,1.90
2022-11-16T09:21:23.363Z,1.65
2022-11-16T09:23:52.351Z,1.50
2022-11-16T09:26:22.761Z,1.88
2022-11-16T09:28:56.706Z,1.20
2022-11-16T09:31:24.831Z,1.90
2022-11-16T09:33:54.497Z,1.48
2022-11-16T09:36:23.627Z,1.30
2022-11-16T09:41:59.975Z,1.67
2022-11-16T09:44:59.616Z,1.35
2022-11-16T09:47:43.158Z,1.67
2022-11-16T09:50:39.447Z,1.63
2022-11-16T09:53:29.837Z,1.63
2022-11-16T09:56:04.035Z,1.02
2022-11-16T09:58:43.094Z,1.45
2022-11-16T10:01:24.666Z,1.67
2022-11-16T10:04:01.324Z,1.50
2022-11-16T10:06:46.873Z,1.25
2022-11-16T10:09:15.285Z,1.48
2022-11-16T10:11:57.264Z,1.60
2022-11-16T10:14:46.996Z,1.75
2022-11-16T10:17:31.655Z,1.55
2022-11-16T10:20:30.506Z,1.75
2022-11-16T10:23:14.443Z,1.60
2022-11-16T10:25:45.292Z,1.23
2022-11-16T10:28:51.363Z,2.03
2022-11-16T10:31:31.901Z,1.33
2022-11-16T10:34:03.675Z,1.45
2022-11-16T10:36:38.556Z,1.95
2022-11-16T10:39:15.843Z,1.23
2022-11-16T10:41:49.231Z,1.60
2022-11-16T10:44:28.120Z,1.63
2022-11-16T10:47:04.332Z,1.35
2022-11-16T10:49:40.866Z,1.17
2022-11-16T10:52:08.649Z,2.17
2022-11-16T10:54:41.472Z,0.95
2022-11-16T10:57:13.944Z,1.40
2022-11-16T10:59:45.158Z,1.80
2022-11-16T11:02:37.755Z,1.45
2022-11-16T11:05:16.463Z,1.30
2022-11-16T11:07:54.071Z,1.45
2022-11-16T11:10:33.207Z,1.48
2022-11-16T11:13:21.724Z,0.93
2022-11-16T11:15:51.205Z,1.17
2022-11-16T11:18:27.612Z,0.90
2022-11-16T11:21:10.053Z,0.63
2022-11-16T11:23:46.191Z,0.80
2022-11-16T11:26:36.549Z,1.10
2022-11-16T11:29:22.451Z,1.27
2022-11-16T11:31:53.486Z,0.73
2022-11-16T11:34:25.557Z,0.80
2022-11-16T11:36:58.760Z,0.93
2022-11-16T11:39:32.183Z,0.50
2022-11-16T11:42:24.127Z,0.70
2022-11-16T11:44:58.711Z,1.02
2022-11-16T11:50:45.435Z,0.50
2022-11-16T11:53:28.965Z,0.77
2022-11-16T11:55:59.717Z,0.60
2022-11-16T11:58:32.567Z,0.50
2022-11-16T12:01:39.591Z,0.60
2022-11-16T12:05:00.076Z,0.70
2022-11-16T12:07:49.298Z,1.08
2022-11-16T12:10:29.597Z,0.90
2022-11-16T12:13:31.359Z,0.77
2022-11-16T12:16:16.080Z,0.57
2022-11-16T12:19:06.883Z,0.57
2022-11-16T12:21:52.133Z,0.50
2022-11-16T12:24:53.673Z,0.40
2022-11-16T12:27:35.845Z,0.63
2022-11-16T12:30:12.650Z,0.60
2022-11-16T12:33:12.355Z,0.50
2022-11-16T12:35:52.965Z,0.38
2022-11-16T12:38:42.303Z,0.32
2022-11-16T12:41:43.314Z,0.50
2022-11-16T12:44:16.329Z,0.77
2022-11-16T12:47:03.604Z,0.43
2022-11-16T12:50:04.138Z,0.38
2022-11-16T12:53:01.978Z,0.73
2022-11-16T12:55:46.463Z,0.43
2022-11-16T12:58:28.106Z,0.40
2022-11-16T13:01:12.470Z,0.63
2022-11-16T13:03:50.046Z,0.80
2022-11-16T13:06:22.319Z,1.02
2022-11-16T13:09:02.623Z,1.08
2022-11-16T13:11:37.139Z,1.38
2022-11-16T13:16:40.472Z,1.15
2022-11-16T13:19:13.640Z,1.45
2022-11-16T13:21:55.700Z,1.35
2022-11-16T13:24:43.913Z,1.10
2022-11-16T13:27:36.802Z,1.23
2022-11-16T13:30:17.138Z,0.55
2022-11-16T13:33:04.623Z,1.15
2022-11-16T13:35:36.669Z,1.17
2022-11-16T13:38:12.422Z,1.00
2022-11-16T13:40:41.960Z,0.65
2022-11-16T13:43:20.547Z,1.00
2022-11-16T13:45:57.947Z,1.02
2022-11-16T13:48:33.341Z,0.90
2022-11-16T13:51:05.203Z,1.20
2022-11-16T13:56:50.899Z,0.82
2022-11-16T13:59:27.517Z,0.95
2022-11-16T14:01:58.946Z,1.17
2022-11-16T14:04:56.010Z,0.75
2022-11-16T14:07:42.740Z,0.98
2022-11-16T14:10:33.126Z,1.33
2022-11-16T14:13:01.703Z,1.08
2022-11-16T14:15:33.381Z,1.02
2022-11-16T14:18:38.013Z,0.80
2022-11-16T14:21:24.375Z,1.35
2022-11-16T14:24:14.837Z,1.27
2022-11-16T14:26:54.378Z,0.90
2022-11-16T14:29:52.833Z,0.88
2022-11-16T14:32:25.051Z,0.80
2022-11-16T14:34:57.527Z,0.70
2022-11-16T14:37:36.777Z,0.80
2022-11-16T14:40:14.863Z,0.73
2022-11-16T14:43:17.452Z,0.47
2022-11-16T14:45:40.531Z,1.00
2022-11-16T14:48:17.850Z,0.88
2022-11-16T14:51:02.026Z,1.05
2022-11-16T14:53:31.575Z,0.73
2022-11-16T14:56:12.563Z,1.10
2022-11-16T14:58:53.265Z,2.80
2022-11-16T15:01:25.311Z,1.40
2022-11-16T15:03:59.140Z,1.20
2022-11-16T15:06:27.709Z,1.38
2022-11-16T15:09:01.642Z,1.25
2022-11-16T15:11:46.881Z,1.20
2022-11-16T15:14:21.056Z,0.82
2022-11-16T15:16:54.383Z,0.57
2022-11-16T15:19:22.983Z,1.02
2022-11-16T15:21:56.802Z,0.70
2022-11-16T15:24:31.749Z,0.80
2022-11-16T15:27:24.238Z,0.98
2022-11-16T15:29:53.345Z,0.90
2022-11-16T15:32:21.111Z,0.52
2022-11-16T15:34:53.988Z,0.82
2022-11-16T15:37:29.242Z,0.90
2022-11-16T15:39:58.900Z,1.00
2022-11-16T15:42:29.535Z,0.98
2022-11-16T15:45:15.613Z,0.88
2022-11-16T15:47:46.404Z,0.98
2022-11-16T15:50:19.535Z,1.63
2022-11-16T15:52:52.533Z,1.52
2022-11-16T15:55:34.925Z,4.13
2022-11-16T15:58:08.165Z,4.00
2022-11-16T16:00:38.901Z,1.27
2022-11-16T16:03:19.299Z,1.10
2022-11-16T16:05:48.733Z,0.90
2022-11-16T16:08:29.853Z,0.50
2022-11-16T16:11:04.460Z,0.40
2022-11-16T16:16:24.185Z,0.70
2022-11-16T16:18:52.992Z,1.33
2022-11-16T16:21:20.780Z,1.05
2022-11-16T16:23:51.047Z,0.65
2022-11-16T16:26:19.391Z,0.60
2022-11-16T16:28:47.607Z,0.47
2022-11-16T16:31:20.022Z,1.08
2022-11-16T16:33:47.923Z,1.10
2022-11-16T16:36:15.611Z,1.40
2022-11-16T16:38:43.353Z,1.10
2022-11-16T16:41:23.956Z,0.68
2022-11-16T16:43:52.231Z,0.60
2022-11-16T16:46:21.790Z,1.30
2022-11-16T16:48:49.596Z,0.98
2022-11-16T16:51:17.593Z,0.65
2022-11-16T16:53:45.314Z,0.43
2022-11-16T16:56:17.872Z,0.73
2022-11-16T16:58:45.550Z,0.90
2022-11-16T17:01:13.496Z,1.08
2022-11-16T17:03:42.871Z,1.08
2022-11-16T17:06:10.607Z,0.70
2022-11-16T17:08:39.185Z,0.80
2022-11-16T17:11:07.185Z,0.95
2022-11-16T17:13:35.203Z,0.55
2022-11-16T17:16:06.317Z,0.57
2022-11-16T17:18:34.056Z,1.13
2022-11-16T17:21:06.844Z,0.75
2022-11-16T17:23:35.918Z,0.98
2022-11-16T17:26:05.642Z,0.90
2022-11-16T17:28:34.359Z,0.82
2022-11-16T17:31:03.584Z,1.15
2022-11-16T17:33:35.169Z,1.30
2022-11-16T17:36:05.337Z,1.35
2022-11-16T17:38:33.980Z,1.33
2022-11-16T17:41:06.834Z,1.35
2022-11-16T17:43:35.607Z,1.20
2022-11-16T17:46:09.725Z,1.17
2022-11-16T17:48:40.150Z,1.73
2022-11-16T17:51:09.672Z,1.50
2022-11-16T17:53:39.841Z,1.38
2022-11-16T17:56:08.918Z,1.10
2022-11-16T17:58:36.703Z,0.98
2022-11-16T18:01:04.671Z,1.48
2022-11-16T18:03:33.025Z,1.63
2022-11-16T18:06:06.631Z,1.30
2022-11-16T18:08:37.521Z,2.13
2022-11-16T18:11:06.844Z,1.38
2022-11-16T18:13:36.775Z,1.30
2022-11-16T18:16:07.745Z,1.45
2022-11-16T18:18:36.111Z,1.05
2022-11-16T18:21:03.899Z,1.73
2022-11-16T18:23:34.176Z,1.60
2022-11-16T18:26:08.689Z,1.42
2022-11-16T18:28:36.476Z,1.30
2022-11-16T18:31:06.689Z,1.80
2022-11-16T18:33:36.777Z,1.67
2022-11-16T18:36:06.483Z,1.25
2022-11-16T18:38:34.982Z,1.92
2022-11-16T18:41:16.519Z,1.20
2022-11-16T18:43:51.116Z,1.77
2022-11-16T18:48:47.570Z,1.38
2022-11-16T18:51:17.122Z,1.25
2022-11-16T18:53:45.741Z,1.30
2022-11-16T18:56:15.392Z,1.25
2022-11-16T18:58:52.249Z,1.35
2022-11-16T19:01:23.079Z,0.82
2022-11-16T19:03:51.949Z,0.90
2022-11-16T19:06:20.374Z,0.90
2022-11-16T19:08:55.353Z,1.77
2022-11-16T19:11:26.538Z,1.00
2022-11-16T19:13:57.635Z,0.90
2022-11-16T19:16:26.039Z,1.38
2022-11-16T19:18:54.226Z,1.52
2022-11-16T19:21:24.287Z,1.45
2022-11-16T19:23:54.264Z,0.85
2022-11-16T19:26:26.305Z,1.10
2022-11-16T19:28:55.070Z,2.00
2022-11-16T19:31:26.003Z,0.80
2022-11-16T19:33:58.942Z,1.67
2022-11-16T19:36:29.272Z,0.90
2022-11-16T19:38:57.150Z,1.58
2022-11-16T19:41:28.755Z,1.23
2022-11-16T19:44:01.573Z,1.77
2022-11-16T19:46:31.858Z,1.63
2022-11-16T19:49:01.061Z,1.55
2022-11-16T19:51:31.865Z,1.10
2022-11-16T19:54:00.490Z,1.05
2022-11-16T19:56:30.020Z,1.63
2022-11-16T19:58:58.284Z,1.25
2022-11-16T20:01:29.247Z,1.33
2022-11-16T20:04:01.471Z,1.15
2022-11-16T20:06:32.531Z,1.10
2022-11-16T20:09:05.245Z,1.77
2022-11-16T20:11:35.317Z,2.45
2022-11-16T20:14:05.598Z,0.80
2022-11-16T20:16:38.717Z,1.02
2022-11-16T20:19:07.825Z,1.30
2022-11-16T20:21:38.951Z,1.50
2022-11-16T20:24:09.541Z,1.35
2022-11-16T20:26:43.960Z,1.30
2022-11-16T20:29:12.867Z,1.20
2022-11-16T20:31:42.634Z,0.75
2022-11-16T20:34:14.696Z,1.30
2022-11-16T20:36:44.474Z,1.00
2022-11-16T20:39:15.009Z,1.45
2022-11-16T20:41:44.701Z,1.38
2022-11-16T20:44:16.721Z,0.85
2022-11-16T20:46:45.430Z,1.77
2022-11-16T20:49:13.828Z,1.10
2022-11-16T20:51:41.771Z,1.00
2022-11-16T20:54:09.533Z,1.20
2022-11-16T20:56:37.594Z,1.35
2022-11-16T20:59:06.647Z,1.42
2022-11-16T21:01:34.596Z,1.13
2022-11-16T21:04:05.445Z,1.05
2022-11-16T21:06:34.189Z,1.45
2022-11-16T21:09:02.321Z,1.92
2022-11-16T21:11:52.749Z,1.50
2022-11-16T21:14:21.547Z,1.55
2022-11-16T21:16:49.323Z,1.83
2022-11-16T21:19:17.107Z,1.63
2022-11-16T21:21:44.870Z,1.38
2022-11-16T21:24:12.570Z,1.17
2022-11-16T21:26:40.347Z,1.38
2022-11-16T21:29:08.062Z,1.75
2022-11-16T21:31:37.898Z,1.88
2022-11-16T21:34:07.382Z,0.95
2022-11-16T21:36:35.986Z,1.60
2022-11-16T21:39:04.156Z,1.05
2022-11-16T21:41:31.915Z,1.52
2022-11-16T21:43:59.648Z,1.35
2022-11-16T21:46:28.497Z,1.10
2022-11-16T21:48:58.683Z,0.88
2022-11-16T21:51:28.051Z,0.68
2022-11-16T21:53:56.208Z,0.90
2022-11-16T21:56:26.180Z,1.05
2022-11-16T21:58:55.404Z,0.45
2022-11-16T22:01:24.589Z,0.70
2022-11-16T22:04:06.516Z,1.27
2022-11-16T22:06:53.363Z,1.42
2022-11-16T22:09:21.551Z,1.35
2022-11-16T22:11:49.266Z,1.30
2022-11-16T22:14:17.049Z,1.33
2022-11-16T22:16:44.840Z,1.00
2022-11-16T22:19:12.555Z,1.27
2022-11-16T22:21:41.625Z,1.15
2022-11-16T22:24:09.698Z,1.52
2022-11-16T22:26:37.978Z,1.75
2022-11-16T22:29:05.688Z,1.70
2022-11-16T22:31:33.410Z,1.42
2022-11-16T22:34:01.120Z,1.30
2022-11-16T22:36:28.912Z,1.58
2022-11-16T22:38:58.016Z,1.38
2022-11-16T22:41:25.727Z,1.25
2022-11-16T22:43:53.612Z,1.05
2022-11-16T22:46:21.563Z,1.15
2022-11-16T22:48:49.262Z,0.90
2022-11-16T22:51:21.886Z,1.50
2022-11-16T22:53:54.795Z,1.95
2022-11-16T22:56:24.670Z,1.23
2022-11-16T22:58:52.921Z,1.60
2022-11-16T23:01:21.420Z,1.60
2022-11-16T23:03:49.748Z,1.08
2022-11-16T23:06:18.043Z,1.42
2022-11-16T23:08:45.772Z,0.65
2022-11-16T23:11:33.912Z,1.67
2022-11-16T23:14:21.971Z,1.40
2022-11-16T23:16:50.080Z,1.90
2022-11-16T23:19:38.098Z,1.08
2022-11-16T23:22:23.954Z,0.93
2022-11-16T23:25:09.965Z,1.88
2022-11-16T23:27:43.537Z,1.30
2022-11-16T23:30:13.915Z,1.75
2022-11-16T23:32:42.325Z,1.38
2022-11-16T23:35:12.423Z,1.10
2022-11-16T23:37:56.747Z,1.35
2022-11-16T23:40:27.490Z,1.00
2022-11-16T23:43:13.786Z,1.48
2022-11-16T23:45:44.376Z,1.20
2022-11-16T23:48:13.903Z,1.60
2022-11-16T23:50:41.977Z,1.15
2022-11-16T23:53:11.404Z,0.98
2022-11-16T23:55:40.847Z,1.58
2022-11-16T23:58:14.133Z,0.80
